Pagrindinis puslapis
METAR-TAF:

METAR-TAF

Oro uostai :

Neapolis, Italija

platuma: 40-51N, ilguma: 014-18E, Aukštis: 88 m

Dabartinis oras

Ataskaita buvo paskelbta 25 minutes, ne 18:50 UTC
Vėjas 1 kt nuo kintamojo kryptimis
Temperatūra 11°C
Drėgmė 71%
Slėgis 1031 hPa
Matomumas 10 km arba daugiau

METAR: LIRN 021850Z AUTO VRB01KT 9999 NCD 11/06 Q1031

Laikas: 20:15 (19:15 UTC)

Prognozė

Ataskaita buvo paskelbta 2 valandos ir 15 minutes, ne 17:00 UTC
Prognozė galioja nuo 02 metu 18 UTC su 03 metu 18 UTC
Vėjas 5 kt nuo kintamojo kryptimis
Matomumas 10 km arba daugiau
nėra debesų žemiau 1500 m ir nėra kamuolinių lietaus debesų
Tapsmas
nuo 03 metu 10 UTC su 03 metu 12 UTC
Vėjas 10 kt iš Pietvakarių
Tapsmas
nuo 03 metu 16 UTC su 03 metu 18 UTC
Vėjas 5 kt nuo kintamojo kryptimis

TAF: LIRN 021700Z 0218/0318 VRB05KT CAVOK BECMG 0310/0312 22010KT BECMG 0316/0318 VRB05KT

Orai ataskaitas ir orų prognozės (METAR, TAF).

turimą stotys yra geltonos ir raudonos taškus žemėlapyje.

Perkelti pele per norėdami pamatyti stoties vardą.

Tada spustelėkite, norėdami matyti oro stebėjimo ir prognozės.

Norėdami pakeisti žemėlapį: spustelėkite ant žalios mygtukų su juodo kryžiaus žemyn,; žalią mygtuką su brūkšneliu, jei norite nutolinti; arba žalių rodyklių gretimoms žemėlapius.


METAR-TAF: